createdAt,value
2019-04-06T08:06:17.214Z,78.60
2019-04-06T08:08:39.938Z,77.80
2019-04-06T08:11:09.205Z,77.40
2019-04-06T08:13:31.778Z,78.50
2019-04-06T08:15:54.447Z,77.10
2019-04-06T08:18:19.088Z,76.90
2019-04-06T08:26:16.314Z,76.50
2019-04-06T08:28:39.043Z,75.80
2019-04-06T08:45:46.056Z,73.90
2019-04-06T11:21:10.528Z,49.50
2019-04-06T11:24:26.355Z,48.40
2019-04-06T11:27:11.754Z,49.00
2019-04-06T18:37:36.896Z,62.10
2019-04-06T18:40:01.875Z,62.30
2019-04-06T18:42:24.600Z,62.40
2019-04-06T18:44:47.337Z,62.00
2019-04-06T18:47:09.894Z,62.20
2019-04-06T18:49:32.451Z,62.00
2019-04-06T18:51:54.920Z,62.20
2019-04-06T18:54:17.496Z,62.40
2019-04-06T18:56:40.101Z,62.80
2019-04-06T18:59:02.924Z,63.00
2019-04-06T19:01:25.819Z,63.30
2019-04-06T19:03:48.523Z,63.30
2019-04-06T19:06:11.307Z,63.40
2019-04-06T19:08:34.290Z,63.60
2019-04-06T19:10:58.046Z,63.70
2019-04-06T19:13:20.657Z,64.10
2019-04-06T19:15:43.155Z,64.30
2019-04-06T19:18:05.660Z,64.60
2019-04-06T19:20:28.212Z,64.50
2019-04-06T19:22:50.848Z,65.00
2019-04-06T19:25:14.345Z,65.40
2019-04-06T19:27:37.340Z,65.60
2019-04-06T19:30:00.366Z,65.90
2019-04-06T19:32:24.126Z,65.70
2019-04-06T19:34:46.995Z,65.50
2019-04-06T19:37:10.384Z,66.00
2019-04-06T19:39:33.042Z,66.30
2019-04-06T19:41:55.579Z,66.60
2019-04-06T19:44:18.134Z,66.60
2019-04-06T19:46:40.603Z,66.00
2019-04-06T19:49:03.095Z,66.60
2019-04-06T19:51:26.450Z,67.00
2019-04-06T19:53:48.992Z,67.00
2019-04-06T19:56:12.035Z,67.90
2019-04-06T19:58:34.582Z,67.30
2019-04-06T20:00:57.418Z,67.50
